Time;durP1;ratioP1;P1;durP2;ratioP2;P2;SDS_P1;SDS_P2;PMS_P1;PMS_P2;Temp;Humidity;BMP_temperature;BMP_pressure;BME280_temperature;BME280_humidity;BME280_pressure;Samples;Min_cycle;Max_cycle;Signal;HPM_P1;HPM_P2
2021/06/11 00:00:48;;;;;;;5.88;1.60;;;23.10;49.40;;;;;;5011939;28;20116;-49
2021/06/11 00:03:14;;;;;;;4.90;2.10;;;23.00;49.70;;;;;;4994595;28;20033;-48
2021/06/11 00:05:40;;;;;;;3.90;1.80;;;22.90;49.40;;;;;;4994211;28;20112;-50
2021/06/11 00:08:06;;;;;;;4.22;1.80;;;23.00;49.50;;;;;;4994951;28;20563;-51
2021/06/11 00:10:32;;;;;;;7.53;1.80;;;22.90;49.60;;;;;;5011729;28;20059;-49
2021/06/11 00:12:58;;;;;;;3.47;1.75;;;22.90;49.80;;;;;;4994652;28;20029;-54
2021/06/11 00:15:25;;;;;;;3.00;1.75;;;22.80;50.10;;;;;;4978391;28;20061;-57
2021/06/11 00:17:51;;;;;;;4.80;2.30;;;22.80;50.20;;;;;;4977980;28;20025;-53
2021/06/11 00:20:18;;;;;;;2.35;1.70;;;22.70;50.40;;;;;;5012160;28;20026;-51
2021/06/11 00:22:44;;;;;;;4.13;2.15;;;22.70;50.40;;;;;;4994009;28;20542;-51
2021/06/11 00:25:13;;;;;;;3.40;1.90;;;22.70;50.30;;;;;;5011921;28;20080;-49
2021/06/11 00:27:39;;;;;;;6.75;1.92;;;22.70;50.50;;;;;;4994275;28;20120;-49
2021/06/11 00:30:08;;;;;;;7.53;2.22;;;22.60;50.70;;;;;;5011907;28;20056;-48
2021/06/11 00:32:34;;;;;;;3.90;2.00;;;22.60;50.80;;;;;;5011479;28;20034;-50
2021/06/11 00:34:59;;;;;;;5.32;2.00;;;22.60;50.60;;;;;;5011987;28;20022;-51
2021/06/11 00:37:25;;;;;;;4.18;2.00;;;22.60;50.70;;;;;;5011578;28;20024;-56
2021/06/11 00:39:51;;;;;;;3.70;1.88;;;22.70;50.70;;;;;;5011470;28;20453;-53
2021/06/11 00:42:17;;;;;;;3.67;1.92;;;22.60;50.90;;;;;;5011735;28;20126;-53
2021/06/11 00:44:42;;;;;;;4.53;2.28;;;22.50;51.30;;;;;;4993571;28;20029;-53
2021/06/11 00:47:08;;;;;;;3.45;2.08;;;22.60;51.20;;;;;;5012205;28;20030;-54
2021/06/11 00:49:34;;;;;;;5.10;1.92;;;22.50;51.40;;;;;;4994217;28;20483;-54
2021/06/11 00:52:00;;;;;;;3.90;2.10;;;22.40;51.30;;;;;;5012293;28;20527;-51
2021/06/11 00:54:25;;;;;;;3.95;2.15;;;22.40;51.80;;;;;;5011966;28;20112;-52
2021/06/11 00:56:51;;;;;;;4.00;1.92;;;22.40;51.20;;;;;;5011432;28;20034;-53
2021/06/11 00:59:18;;;;;;;2.65;1.80;;;22.40;51.10;;;;;;4994618;28;20380;-53
2021/06/11 01:01:44;;;;;;;2.92;2.00;;;22.50;51.00;;;;;;4994032;28;20026;-53
2021/06/11 01:04:10;;;;;;;4.10;1.60;;;22.40;51.40;;;;;;5012019;28;20053;-50
2021/06/11 01:06:40;;;;;;;2.00;1.60;;;22.30;51.30;;;;;;4978000;28;20101;-54
2021/06/11 01:09:07;;;;;;;3.50;1.92;;;22.30;51.60;;;;;;4980596;28;20377;-53
2021/06/11 01:11:33;;;;;;;2.58;1.90;;;22.30;51.80;;;;;;4998231;28;20032;-52
2021/06/11 01:13:59;;;;;;;3.72;2.10;;;22.30;51.70;;;;;;5015854;28;20041;-55
2021/06/11 01:16:25;;;;;;;3.45;2.08;;;22.30;51.70;;;;;;5015937;28;20117;-51
2021/06/11 01:18:51;;;;;;;4.35;1.80;;;22.20;51.90;;;;;;4997843;28;20026;-53
2021/06/11 01:21:20;;;;;;;6.88;2.20;;;22.30;51.70;;;;;;5015902;28;20449;-53
2021/06/11 01:24:16;;;;;;;3.05;2.08;;;22.30;51.70;;;;;;5014935;28;20042;-55
2021/06/11 01:26:47;;;;;;;4.10;2.20;;;22.30;51.90;;;;;;5015013;28;20511;-56
2021/06/11 01:29:32;;;;;;;3.70;2.00;;;22.30;52.20;;;;;;5015863;28;20034;-50
2021/06/11 01:32:05;;;;;;;3.72;2.35;;;22.30;52.20;;;;;;5015999;28;20029;-50
2021/06/11 01:34:39;;;;;;;5.40;2.00;;;22.30;52.40;;;;;;5015605;28;20022;-52
2021/06/11 01:37:17;;;;;;;4.55;2.20;;;22.20;52.70;;;;;;4981717;28;20071;-53
2021/06/11 01:39:45;;;;;;;2.53;1.85;;;22.20;52.90;;;;;;4997516;28;20030;-48
2021/06/11 01:42:12;;;;;;;4.80;2.20;;;22.20;53.10;;;;;;5015168;28;20095;-52
2021/06/11 01:44:40;;;;;;;2.97;1.90;;;22.10;53.90;;;;;;5014761;28;20018;-54
2021/06/11 01:47:08;;;;;;;3.58;2.33;;;22.10;53.40;;;;;;5015033;28;20053;-52
2021/06/11 01:49:34;;;;;;;6.28;2.17;;;22.00;54.10;;;;;;4996778;28;20025;-58
2021/06/11 01:52:03;;;;;;;3.35;2.22;;;21.90;53.60;;;;;;5015342;28;20061;-52
2021/06/11 01:54:30;;;;;;;2.78;1.90;;;22.00;54.30;;;;;;4997238;28;20469;-51
2021/06/11 01:56:57;;;;;;;2.90;2.35;;;22.00;53.60;;;;;;5014227;28;20113;-55
2021/06/11 01:59:24;;;;;;;3.20;2.00;;;22.00;53.50;;;;;;5015184;28;20034;-55
2021/06/11 02:01:52;;;;;;;1.90;1.67;;;22.00;53.60;;;;;;5014360;28;20108;-55
2021/06/11 02:04:19;;;;;;;4.20;2.05;;;22.00;53.50;;;;;;5014771;28;20477;-54
2021/06/11 02:06:45;;;;;;;3.08;2.00;;;22.00;53.50;;;;;;5014625;28;20096;-53
2021/06/11 02:09:12;;;;;;;2.60;1.85;;;21.90;53.00;;;;;;5014745;28;20022;-52
2021/06/11 02:11:41;;;;;;;2.13;1.77;;;21.70;53.00;;;;;;5014653;28;20109;-56
2021/06/11 02:14:10;;;;;;;3.10;2.13;;;21.60;53.30;;;;;;5014486;28;20381;-52
2021/06/11 02:16:37;;;;;;;3.28;2.05;;;21.60;53.40;;;;;;4996365;28;20057;-52
2021/06/11 02:19:03;;;;;;;2.53;1.90;;;21.80;53.20;;;;;;5014102;28;20039;-49
2021/06/11 02:21:30;;;;;;;4.25;2.00;;;21.80;53.30;;;;;;4996353;28;20034;-52
2021/06/11 02:23:57;;;;;;;4.10;2.35;;;21.80;53.50;;;;;;5014495;28;20025;-54
2021/06/11 02:26:25;;;;;;;3.33;1.95;;;21.80;53.40;;;;;;4997148;28;20040;-47
2021/06/11 02:28:51;;;;;;;2.38;1.60;;;21.90;53.40;;;;;;4996441;28;20030;-56
2021/06/11 02:31:18;;;;;;;3.65;2.00;;;21.90;53.20;;;;;;5014901;28;20515;-51
2021/06/11 02:33:44;;;;;;;3.70;2.03;;;21.90;53.20;;;;;;4996115;28;20022;-53
2021/06/11 02:36:10;;;;;;;5.00;2.05;;;21.80;53.70;;;;;;4996608;28;20038;-53
2021/06/11 02:38:36;;;;;;;2.65;2.17;;;21.80;53.70;;;;;;5013954;28;20030;-58
2021/06/11 02:41:03;;;;;;;4.93;2.13;;;21.70;53.90;;;;;;4996473;28;20036;-52
2021/06/11 02:43:32;;;;;;;3.60;2.30;;;21.70;54.60;;;;;;5014459;28;20026;-55
2021/06/11 02:46:09;;;;;;;3.97;2.38;;;21.60;54.50;;;;;;4996053;28;20381;-53
2021/06/11 02:48:40;;;;;;;5.28;2.10;;;21.40;55.10;;;;;;5013962;28;20030;-54
2021/06/11 02:51:18;;;;;;;4.13;2.10;;;21.40;55.20;;;;;;5013937;28;20026;-53
2021/06/11 02:53:46;;;;;;;2.75;2.15;;;21.40;55.50;;;;;;5013481;28;20037;-55
2021/06/11 02:56:48;;;;;;;5.13;2.30;;;21.40;55.50;;;;;;5013898;28;20073;-55
2021/06/11 02:59:38;;;;;;;2.90;2.20;;;21.50;55.50;;;;;;4962843;28;20124;-53
2021/06/11 03:02:09;;;;;;;3.95;2.38;;;21.50;55.70;;;;;;5014163;28;20026;-49
2021/06/11 03:04:36;;;;;;;3.80;2.20;;;21.40;55.80;;;;;;5013739;28;20026;-52
2021/06/11 03:07:03;;;;;;;9.23;2.42;;;21.40;56.00;;;;;;5013319;28;20030;-53
2021/06/11 03:09:31;;;;;;;2.72;2.25;;;21.40;56.10;;;;;;5013668;28;20035;-53
2021/06/11 03:12:00;;;;;;;4.93;2.45;;;21.30;56.80;;;;;;5013561;28;20026;-53
2021/06/11 03:14:28;;;;;;;3.72;2.33;;;21.30;56.90;;;;;;5013074;28;20036;-52
2021/06/11 03:17:00;;;;;;;6.75;2.60;;;21.20;56.90;;;;;;5013002;28;20037;-52
2021/06/11 03:19:32;;;;;;;4.03;2.35;;;21.20;57.10;;;;;;5013622;28;20018;-51
2021/06/11 03:22:11;;;;;;;3.13;2.50;;;21.30;57.00;;;;;;5012734;28;20022;-52
2021/06/11 03:24:50;;;;;;;5.57;2.60;;;21.40;56.90;;;;;;5013379;28;20075;-50
2021/06/11 03:27:20;;;;;;;3.53;2.70;;;21.40;57.20;;;;;;4995842;28;20033;-53
2021/06/11 03:29:53;;;;;;;4.50;2.35;;;21.40;57.20;;;;;;5012775;28;20113;-55
2021/06/11 03:32:28;;;;;;;5.75;2.70;;;21.30;57.70;;;;;;5012044;28;20025;-52
2021/06/11 03:34:58;;;;;;;5.07;2.60;;;21.20;58.00;;;;;;5012733;28;20061;-52
2021/06/11 03:37:26;;;;;;;5.00;2.50;;;21.10;58.20;;;;;;5013315;28;20030;-52
2021/06/11 03:39:58;;;;;;;6.18;3.00;;;21.20;58.30;;;;;;4995059;28;20025;-56
2021/06/11 03:42:26;;;;;;;3.10;2.33;;;21.10;58.30;;;;;;4991986;28;20130;-54
2021/06/11 03:44:53;;;;;;;4.40;2.58;;;21.10;58.30;;;;;;4991357;28;20022;-49
2021/06/11 03:47:23;;;;;;;6.00;2.78;;;21.20;58.20;;;;;;4993550;28;20030;-52
2021/06/11 03:49:53;;;;;;;3.67;2.80;;;21.20;58.20;;;;;;4991580;28;20026;-54
2021/06/11 03:52:33;;;;;;;3.10;2.60;;;21.20;58.50;;;;;;4993266;28;20038;-51
2021/06/11 03:55:20;;;;;;;3.33;2.35;;;21.20;58.90;;;;;;4992672;28;20080;-54
2021/06/11 03:57:55;;;;;;;5.63;2.53;;;21.20;58.90;;;;;;4992241;28;20039;-53
2021/06/11 04:00:22;;;;;;;4.80;2.55;;;21.10;59.30;;;;;;4992881;28;20034;-53
2021/06/11 04:02:48;;;;;;;8.80;2.78;;;21.10;59.30;;;;;;4992212;28;20023;-51
2021/06/11 04:05:15;;;;;;;4.93;2.45;;;21.10;59.30;;;;;;4991250;28;20026;-53
2021/06/11 04:08:05;;;;;;;4.20;2.95;;;21.10;59.20;;;;;;4974721;28;20026;-58
2021/06/11 04:10:39;;;;;;;5.35;2.80;;;21.10;59.50;;;;;;4992499;28;20036;-55
2021/06/11 04:13:08;;;;;;;;;;;21.00;59.90;;;;;;4975521;28;20154;-54
2021/06/11 04:15:35;;;;;;;4.50;2.80;;;21.00;60.00;;;;;;4992280;28;20085;-56
2021/06/11 04:18:09;;;;;;;6.07;2.75;;;21.00;59.90;;;;;;4990770;28;20152;-53
2021/06/11 04:20:35;;;;;;;6.07;2.92;;;21.00;60.00;;;;;;4991245;28;20030;-49
2021/06/11 04:23:03;;;;;;;4.75;2.85;;;20.90;60.30;;;;;;4990110;28;20037;-54
2021/06/11 04:25:32;;;;;;;6.43;2.60;;;20.90;60.50;;;;;;4990793;28;20030;-52
2021/06/11 04:28:00;;;;;;;4.32;2.78;;;21.00;60.40;;;;;;4991699;28;20354;-53
2021/06/11 04:30:26;;;;;;;3.42;2.50;;;21.00;60.10;;;;;;4992211;28;20472;-47
2021/06/11 04:32:53;;;;;;;5.90;3.13;;;21.20;59.80;;;;;;4991402;28;20274;-53
2021/06/11 04:35:33;;;;;;;5.60;2.78;;;21.20;59.50;;;;;;4990880;28;20492;-55
2021/06/11 04:37:58;;;;;;;4.28;2.80;;;21.30;59.50;;;;;;4991388;28;20027;-49
2021/06/11 04:40:24;;;;;;;5.32;3.13;;;21.40;59.30;;;;;;4992317;28;20033;-54
2021/06/11 04:42:50;;;;;;;8.02;3.17;;;21.50;58.80;;;;;;5007606;28;20097;-55
2021/06/11 04:45:16;;;;;;;3.97;2.83;;;21.60;58.50;;;;;;5011611;28;20057;-50
2021/06/11 04:47:42;;;;;;;5.13;3.05;;;21.70;58.10;;;;;;5011744;28;20021;-53
2021/06/11 04:50:08;;;;;;;4.80;3.00;;;21.90;57.70;;;;;;5011567;28;20022;-53
2021/06/11 04:52:34;;;;;;;4.47;3.10;;;22.00;57.30;;;;;;5011801;28;20037;-53
2021/06/11 04:54:59;;;;;;;8.13;3.13;;;22.00;57.10;;;;;;5011283;28;20037;-55
2021/06/11 04:57:25;;;;;;;5.05;3.00;;;22.10;57.00;;;;;;4994062;28;20042;-54
2021/06/11 04:59:51;;;;;;;4.22;3.10;;;22.10;56.80;;;;;;5010751;28;20030;-56
2021/06/11 05:02:16;;;;;;;4.40;3.10;;;22.10;56.70;;;;;;5011368;28;20103;-56
2021/06/11 05:05:01;;;;;;;6.60;2.97;;;22.10;56.70;;;;;;4993857;28;20038;-52
2021/06/11 05:07:26;;;;;;;6.95;3.00;;;22.10;56.60;;;;;;5012108;28;20040;-53
2021/06/11 05:09:52;;;;;;;4.68;3.20;;;22.20;56.60;;;;;;5010769;28;20029;-51
2021/06/11 05:12:18;;;;;;;4.78;3.00;;;22.10;57.00;;;;;;4993764;28;20026;-53
2021/06/11 05:14:44;;;;;;;4.82;3.22;;;22.20;56.70;;;;;;4993310;28;20030;-53
2021/06/11 05:17:10;;;;;;;4.63;2.90;;;22.30;56.60;;;;;;5011310;28;20041;-48
2021/06/11 05:19:36;;;;;;;3.67;2.75;;;22.30;56.50;;;;;;4993911;28;20033;-54
2021/06/11 05:22:02;;;;;;;4.53;2.97;;;22.40;56.40;;;;;;5010540;28;20121;-51
2021/06/11 05:24:27;;;;;;;5.35;3.25;;;22.50;56.00;;;;;;4993548;28;20226;-51
2021/06/11 05:26:53;;;;;;;6.32;3.17;;;22.40;56.00;;;;;;5010284;28;20477;-52
2021/06/11 05:29:19;;;;;;;7.18;3.05;;;22.50;55.90;;;;;;5011348;28;20026;-55
2021/06/11 05:31:45;;;;;;;10.18;3.92;;;22.50;55.80;;;;;;5010649;28;20037;-52
2021/06/11 05:34:11;;;;;;;4.38;2.90;;;22.50;55.70;;;;;;4993737;28;20472;-57
2021/06/11 05:36:37;;;;;;;6.15;3.40;;;22.50;55.50;;;;;;4993562;28;20362;-52
2021/06/11 05:39:03;;;;;;;8.57;3.22;;;22.50;55.30;;;;;;4993354;28;20041;-53
2021/06/11 05:41:29;;;;;;;5.50;3.05;;;22.40;55.50;;;;;;5011406;28;20072;-53
2021/06/11 05:43:55;;;;;;;4.10;3.00;;;22.50;55.70;;;;;;4993198;28;20030;-51
2021/06/11 05:46:21;;;;;;;7.82;3.60;;;22.60;55.40;;;;;;5011059;28;20393;-53
2021/06/11 05:48:48;;;;;;;7.60;3.53;;;22.80;54.90;;;;;;5010318;28;20057;-54
2021/06/11 05:51:15;;;;;;;7.35;3.05;;;22.80;54.60;;;;;;5010678;28;20033;-50
2021/06/11 05:53:41;;;;;;;9.35;4.32;;;22.80;54.50;;;;;;5010032;28;20029;-54
2021/06/11 05:56:07;;;;;;;5.50;3.40;;;23.00;54.40;;;;;;4994239;28;20026;-57
2021/06/11 05:58:34;;;;;;;5.22;3.08;;;23.20;53.70;;;;;;4995760;28;20053;-52
2021/06/11 06:01:00;;;;;;;8.73;6.13;;;23.40;53.10;;;;;;4994072;28;20029;-61
2021/06/11 06:03:26;;;;;;;6.22;3.67;;;23.50;52.70;;;;;;4996475;28;20026;-53
2021/06/11 06:05:52;;;;;;;7.05;3.90;;;23.70;52.40;;;;;;4997397;28;20048;-56
2021/06/11 06:08:18;;;;;;;11.00;3.35;;;23.90;51.80;;;;;;4995319;28;20029;-54
2021/06/11 06:10:44;;;;;;;7.93;3.20;;;24.00;51.30;;;;;;5013552;28;20508;-56
2021/06/11 06:13:10;;;;;;;6.75;3.58;;;24.20;50.90;;;;;;5013796;28;20133;-55
2021/06/11 06:15:36;;;;;;;3.83;3.20;;;24.10;50.40;;;;;;5013050;28;20120;-54
2021/06/11 06:18:02;;;;;;;4.72;3.10;;;24.20;50.70;;;;;;5012616;28;20487;-54
2021/06/11 06:20:28;;;;;;;4.97;3.20;;;24.10;50.50;;;;;;5013660;28;20109;-52
2021/06/11 06:22:54;;;;;;;5.85;3.28;;;24.10;50.10;;;;;;5012960;28;20030;-53
2021/06/11 06:25:20;;;;;;;4.80;3.17;;;24.30;50.40;;;;;;5013356;28;20025;-52
2021/06/11 06:27:46;;;;;;;4.43;2.92;;;24.20;49.50;;;;;;5012922;28;20580;-59
2021/06/11 06:30:15;;;;;;;10.25;3.83;;;24.30;49.60;;;;;;4996217;28;20422;-55
2021/06/11 06:32:41;;;;;;;4.60;3.20;;;24.40;48.90;;;;;;5013403;28;20022;-56
2021/06/11 06:35:08;;;;;;;6.32;3.22;;;24.40;48.40;;;;;;4994154;28;20286;-56
2021/06/11 06:37:35;;;;;;;11.65;3.42;;;24.60;48.30;;;;;;5013256;28;20049;-55
2021/06/11 06:40:02;;;;;;;7.47;3.40;;;24.70;48.10;;;;;;5012214;28;20099;-51
2021/06/11 06:42:28;;;;;;;5.53;3.00;;;24.90;48.00;;;;;;5013155;28;20089;-54
2021/06/11 06:44:53;;;;;;;5.90;3.13;;;25.10;47.90;;;;;;5011800;28;20026;-54
2021/06/11 06:47:19;;;;;;;5.95;3.20;;;25.10;47.20;;;;;;4994835;28;20034;-53
2021/06/11 06:49:46;;;;;;;4.53;3.03;;;25.30;47.50;;;;;;5013239;28;20100;-61
2021/06/11 06:52:14;;;;;;;4.93;3.83;;;27.20;45.50;;;;;;5012082;28;20034;-58
2021/06/11 06:54:42;;;;;;;4.57;3.50;;;31.10;39.10;;;;;;5012586;28;20484;-55
2021/06/11 06:57:09;;;;;;;7.00;3.55;;;34.50;35.60;;;;;;5009609;28;20088;-55
2021/06/11 06:59:35;;;;;;;7.90;3.70;;;37.50;31.40;;;;;;5011868;28;20044;-58
2021/06/11 07:02:01;;;;;;;8.18;3.60;;;39.60;28.60;;;;;;5011538;28;20040;-55
2021/06/11 07:04:31;;;;;;;5.55;3.17;;;41.10;27.10;;;;;;5012976;28;20021;-57
2021/06/11 07:06:57;;;;;;;3.25;2.95;;;42.50;26.20;;;;;;4994121;28;20025;-58
2021/06/11 07:09:24;;;;;;;3.40;2.67;;;43.90;25.30;;;;;;5012495;28;20038;-56
2021/06/11 07:11:51;;;;;;;4.75;2.88;;;45.00;25.00;;;;;;5011516;28;20038;-57
2021/06/11 07:14:18;;;;;;;6.95;3.08;;;45.60;23.80;;;;;;4994088;28;20480;-57
2021/06/11 07:16:48;;;;;;;5.13;3.70;;;46.30;23.40;;;;;;5012445;28;20030;-57
2021/06/11 07:19:14;;;;;;;4.85;3.00;;;47.00;23.10;;;;;;5011894;28;20057;-57
2021/06/11 07:21:40;;;;;;;8.25;3.28;;;47.70;22.50;;;;;;4994310;28;20153;-57
2021/06/11 07:24:06;;;;;;;12.07;3.65;;;48.10;22.40;;;;;;5011843;28;20278;-55
2021/06/11 07:26:32;;;;;;;3.28;2.90;;;47.90;22.10;;;;;;5012776;28;20034;-58
2021/06/11 07:28:58;;;;;;;6.90;3.22;;;48.00;22.20;;;;;;5012142;28;20036;-57
2021/06/11 07:31:25;;;;;;;5.00;2.72;;;47.70;21.90;;;;;;4994913;28;20030;-51
2021/06/11 07:33:51;;;;;;;4.18;2.60;;;45.60;22.50;;;;;;4994002;28;20026;-58
2021/06/11 07:36:16;;;;;;;4.22;3.05;;;42.90;23.60;;;;;;5012223;28;20038;-55
2021/06/11 07:38:42;;;;;;;4.85;3.30;;;40.90;24.90;;;;;;5011173;28;20033;-58
2021/06/11 07:41:08;;;;;;;4.45;3.47;;;42.10;25.00;;;;;;5010690;28;20411;-56
2021/06/11 07:43:34;;;;;;;6.72;3.80;;;44.30;24.20;;;;;;5012033;28;20312;-58
2021/06/11 07:46:00;;;;;;;4.32;3.90;;;45.40;23.30;;;;;;5011942;28;20366;-58
2021/06/11 07:48:25;;;;;;;5.30;3.30;;;45.90;23.20;;;;;;4994825;28;20036;-57
2021/06/11 07:50:52;;;;;;;4.75;3.33;;;46.40;22.80;;;;;;4993821;28;20081;-59
2021/06/11 07:53:18;;;;;;;4.75;3.60;;;45.50;23.00;;;;;;5009471;28;20037;-58
2021/06/11 07:55:44;;;;;;;3.72;3.42;;;45.50;23.10;;;;;;4993718;28;20034;-58
2021/06/11 07:58:10;;;;;;;5.88;3.83;;;45.60;23.10;;;;;;4993270;28;20026;-55
2021/06/11 08:00:36;;;;;;;9.07;3.55;;;46.80;22.90;;;;;;5011415;28;20464;-55
2021/06/11 08:03:02;;;;;;;4.45;3.53;;;47.70;22.40;;;;;;5011390;28;20461;-58
2021/06/11 08:05:29;;;;;;;9.45;4.00;;;48.00;22.10;;;;;;5011995;28;20026;-56
2021/06/11 08:07:55;;;;;;;5.32;3.90;;;47.80;22.10;;;;;;5011147;28;20037;-55
2021/06/11 08:10:22;;;;;;;4.80;3.45;;;48.60;21.80;;;;;;4993763;28;20117;-55
2021/06/11 08:12:48;;;;;;;3.83;3.47;;;49.30;21.70;;;;;;5011129;28;20026;-60
2021/06/11 08:15:15;;;;;;;5.88;3.83;;;49.90;21.20;;;;;;4992145;28;20117;-57
2021/06/11 08:17:40;;;;;;;4.45;3.97;;;50.20;21.10;;;;;;4992521;28;20017;-55
2021/06/11 08:20:09;;;;;;;8.07;4.05;;;49.60;21.00;;;;;;5010187;28;20028;-58
2021/06/11 08:22:37;;;;;;;7.18;4.30;;;49.00;21.20;;;;;;5010722;28;20029;-58
2021/06/11 08:25:07;;;;;;;5.55;4.35;;;49.10;21.30;;;;;;4992823;28;20135;-57
2021/06/11 08:27:33;;;;;;;6.90;5.10;;;49.90;21.00;;;;;;5012597;28;20077;-60
2021/06/11 08:29:59;;;;;;;5.55;3.95;;;50.90;20.80;;;;;;5011919;28;20550;-58
2021/06/11 08:32:25;;;;;;;5.95;4.53;;;51.40;20.70;;;;;;5011578;28;20033;-59
2021/06/11 08:34:52;;;;;;;4.22;3.88;;;51.70;20.50;;;;;;4992668;28;20025;-59
2021/06/11 08:37:20;;;;;;;7.63;4.57;;;51.40;20.20;;;;;;5010726;28;20038;-60
2021/06/11 08:39:47;;;;;;;6.13;3.92;;;51.40;20.20;;;;;;4993908;28;20057;-59
2021/06/11 08:42:14;;;;;;;4.93;4.40;;;51.10;20.50;;;;;;5011521;28;20045;-59
2021/06/11 08:44:42;;;;;;;26.60;4.95;;;51.70;20.40;;;;;;5011628;28;20026;-60
2021/06/11 08:47:08;;;;;;;6.05;4.50;;;52.70;20.20;;;;;;5010388;28;20052;-60
2021/06/11 08:49:33;;;;;;;4.22;3.83;;;52.30;19.90;;;;;;5011730;28;20033;-60
2021/06/11 08:51:59;;;;;;;9.20;4.35;;;52.00;20.00;;;;;;5011350;28;20105;-59
2021/06/11 08:54:28;;;;;;;9.20;4.18;;;52.00;20.10;;;;;;5011887;28;20101;-60
2021/06/11 08:56:54;;;;;;;5.63;3.92;;;52.30;19.90;;;;;;5011076;28;20069;-60
2021/06/11 08:59:20;;;;;;;19.58;5.32;;;52.50;19.90;;;;;;5011622;28;20029;-60
2021/06/11 09:01:46;;;;;;;12.38;4.90;;;52.90;19.90;;;;;;4993533;28;20396;-60
2021/06/11 09:04:12;;;;;;;8.48;4.60;;;53.00;19.80;;;;;;5011087;28;20105;-60
2021/06/11 09:06:38;;;;;;;6.32;5.15;;;52.90;19.60;;;;;;5011937;28;20072;-58
2021/06/11 09:09:05;;;;;;;5.00;4.50;;;53.00;19.60;;;;;;4993676;28;20039;-58
2021/06/11 09:11:36;;;;;;;8.10;4.78;;;53.30;19.60;;;;;;5011805;28;20071;-59
2021/06/11 09:14:12;;;;;;;9.15;4.88;;;53.60;19.50;;;;;;4992894;28;20034;-61
2021/06/11 09:16:43;;;;;;;5.28;4.60;;;53.50;19.50;;;;;;4993827;28;20076;-60
2021/06/11 09:19:13;;;;;;;6.10;3.33;;;52.70;19.30;;;;;;4993384;28;20231;-58
2021/06/11 09:21:47;;;;;;;4.07;2.70;;;49.40;20.20;;;;;;5012228;28;20104;-59
2021/06/11 09:24:25;;;;;;;6.35;3.45;;;46.50;21.40;;;;;;4993807;28;20169;-60
2021/06/11 09:27:26;;;;;;;5.18;2.90;;;43.60;22.50;;;;;;5011567;28;20049;-59
2021/06/11 09:29:55;;;;;;;6.35;3.30;;;41.80;23.50;;;;;;4993441;28;20076;-62
2021/06/11 09:32:27;;;;;;;4.10;3.13;;;40.40;24.60;;;;;;4997536;28;20490;-60
2021/06/11 09:35:00;;;;;;;5.60;3.50;;;38.80;25.70;;;;;;4996542;28;20490;-60
2021/06/11 09:37:34;;;;;;;8.00;3.83;;;37.90;26.40;;;;;;5014819;28;20482;-56
2021/06/11 09:40:10;;;;;;;5.60;2.80;;;37.20;26.70;;;;;;5014333;28;20137;-58
2021/06/11 09:42:44;;;;;;;26.42;4.55;;;36.40;27.00;;;;;;5014454;28;20061;-58
2021/06/11 09:45:16;;;;;;;76.82;6.53;;;36.00;27.40;;;;;;5013811;28;20030;-57
2021/06/11 09:47:45;;;;;;;89.43;6.70;;;35.50;27.70;;;;;;4997394;28;20141;-60
2021/06/11 09:50:33;;;;;;;27.20;4.47;;;35.10;28.00;;;;;;4996175;28;20030;-57
2021/06/11 09:53:07;;;;;;;32.75;6.00;;;34.70;28.80;;;;;;4996444;28;20088;-60
2021/06/11 09:55:40;;;;;;;11.07;4.53;;;34.60;29.50;;;;;;4996897;28;20026;-57
2021/06/11 09:58:11;;;;;;;8.05;3.50;;;34.30;29.50;;;;;;4996315;28;20064;-59
2021/06/11 10:00:46;;;;;;;4.05;3.22;;;34.20;29.60;;;;;;4996678;28;20487;-57
2021/06/11 10:03:14;;;;;;;7.38;3.10;;;33.90;29.60;;;;;;4990648;28;20257;-54
2021/06/11 10:05:43;;;;;;;7.35;4.18;;;33.70;29.70;;;;;;5014072;28;20026;-57
2021/06/11 10:08:10;;;;;;;6.90;5.18;;;33.60;29.90;;;;;;4996163;28;20080;-58
2021/06/11 10:10:37;;;;;;;8.35;5.25;;;33.50;29.70;;;;;;4996032;28;20030;-56
2021/06/11 10:13:04;;;;;;;5.55;2.90;;;33.40;29.60;;;;;;5013487;28;20030;-56
2021/06/11 10:15:32;;;;;;;9.30;5.43;;;33.10;29.60;;;;;;4994624;28;20026;-57
2021/06/11 10:18:02;;;;;;;5.35;3.90;;;33.00;29.60;;;;;;4995288;28;20029;-59
2021/06/11 10:20:29;;;;;;;10.60;3.55;;;33.10;29.60;;;;;;4996416;28;20029;-56
2021/06/11 10:22:55;;;;;;;6.15;4.28;;;32.90;29.70;;;;;;5013074;28;20056;-60
2021/06/11 10:25:21;;;;;;;4.70;3.28;;;33.00;29.80;;;;;;5013588;28;20026;-56
2021/06/11 10:27:50;;;;;;;5.10;3.08;;;33.10;29.70;;;;;;5013468;28;20091;-56
2021/06/11 10:30:16;;;;;;;3.92;2.90;;;33.20;29.70;;;;;;5012857;28;20157;-57
2021/06/11 10:32:46;;;;;;;9.60;5.57;;;33.30;29.80;;;;;;5014179;28;20041;-57
2021/06/11 10:35:13;;;;;;;6.85;4.28;;;33.20;30.00;;;;;;4995606;28;20311;-56
2021/06/11 10:37:41;;;;;;;6.60;2.90;;;33.10;30.30;;;;;;4995949;28;20085;-58
2021/06/11 10:40:20;;;;;;;6.35;3.50;;;33.00;30.50;;;;;;4995488;28;20121;-55
2021/06/11 10:42:46;;;;;;;5.90;3.30;;;32.80;31.10;;;;;;4995139;28;20054;-57
2021/06/11 10:45:12;;;;;;;5.35;2.92;;;32.70;30.90;;;;;;4990537;28;20136;-59
2021/06/11 10:47:54;;;;;;;13.23;7.95;;;32.60;30.70;;;;;;5012406;28;20080;-58
2021/06/11 10:50:34;;;;;;;6.72;3.28;;;32.60;30.90;;;;;;5012934;28;20026;-57
2021/06/11 10:53:30;;;;;;;5.22;3.60;;;32.90;30.60;;;;;;4994462;28;20026;-57
2021/06/11 10:56:16;;;;;;;3.20;2.67;;;32.90;30.80;;;;;;5012498;28;20034;-57
2021/06/11 10:58:46;;;;;;;10.45;4.05;;;32.50;30.70;;;;;;4994409;28;20034;-61
2021/06/11 11:01:27;;;;;;;20.13;14.38;;;32.50;30.60;;;;;;4993027;28;20026;-52
2021/06/11 11:04:17;;;;;;;11.45;4.18;;;32.70;30.80;;;;;;5012189;28;20064;-53
2021/06/11 11:06:43;;;;;;;8.40;3.33;;;33.10;30.30;;;;;;5012069;28;20120;-56
2021/06/11 11:09:09;;;;;;;8.75;7.82;;;33.20;29.90;;;;;;4994258;28;20030;-57
2021/06/11 11:11:40;;;;;;;8.45;4.55;;;33.10;29.20;;;;;;4994762;28;20029;-52
2021/06/11 11:14:07;;;;;;;11.45;5.40;;;32.80;29.50;;;;;;4994063;28;20049;-49
2021/06/11 11:16:37;;;;;;;6.25;3.40;;;32.60;30.00;;;;;;5011881;28;20381;-53
2021/06/11 11:19:06;;;;;;;5.40;3.72;;;32.40;31.10;;;;;;4993398;28;20168;-53
2021/06/11 11:21:39;;;;;;;4.97;3.13;;;32.20;31.70;;;;;;4994675;28;20026;-56
2021/06/11 11:24:11;;;;;;;15.90;3.50;;;31.90;32.20;;;;;;5011519;28;20494;-58
2021/06/11 11:26:48;;;;;;;;;;;31.10;31.80;;;;;;4994838;28;20028;-57
2021/06/11 11:29:18;;;;;;;8.85;1.63;;;30.20;31.80;;;;;;5009484;28;19909;-58
2021/06/11 11:31:57;;;;;;;9.25;1.73;;;29.40;31.80;;;;;;5010413;28;20068;-58
2021/06/11 11:34:25;;;;;;;3.20;1.33;;;28.80;32.80;;;;;;5010787;28;20476;-57
2021/06/11 11:36:55;;;;;;;14.10;2.45;;;28.30;33.30;;;;;;4993392;28;20034;-57
2021/06/11 11:39:21;;;;;;;10.18;2.25;;;28.10;33.80;;;;;;4993546;28;20026;-57
2021/06/11 11:41:50;;;;;;;8.93;1.80;;;28.00;34.40;;;;;;4989587;28;20050;-55
2021/06/11 11:44:16;;;;;;;12.07;2.80;;;27.70;36.10;;;;;;4991235;28;20327;-53
2021/06/11 11:46:42;;;;;;;5.15;1.88;;;27.50;39.50;;;;;;4990167;28;20105;-53
2021/06/11 11:49:07;;;;;;;8.65;2.53;;;27.10;40.00;;;;;;4991527;28;20512;-52
2021/06/11 11:51:33;;;;;;;8.85;2.00;;;27.10;40.90;;;;;;4992213;28;20037;-55
2021/06/11 11:54:00;;;;;;;11.60;2.83;;;26.80;42.20;;;;;;4989216;28;20030;-58
2021/06/11 11:56:25;;;;;;;7.43;3.20;;;26.60;43.00;;;;;;4992149;28;20057;-56
2021/06/11 11:58:51;;;;;;;4.43;1.77;;;26.70;42.90;;;;;;4991098;28;20108;-58
2021/06/11 12:01:36;;;;;;;5.45;2.17;;;26.40;43.00;;;;;;4946992;28;20449;-57
2021/06/11 12:04:02;;;;;;;3.78;1.60;;;26.40;43.10;;;;;;4991215;28;20030;-56
2021/06/11 12:06:28;;;;;;;7.10;2.35;;;26.30;42.90;;;;;;4991934;28;20057;-56
2021/06/11 12:08:53;;;;;;;4.97;2.13;;;26.00;44.10;;;;;;4991767;28;20034;-51
2021/06/11 12:11:19;;;;;;;6.20;2.00;;;25.70;44.40;;;;;;4991027;28;20045;-52
2021/06/11 12:13:45;;;;;;;2.53;1.70;;;25.70;45.50;;;;;;4990744;28;20030;-54
2021/06/11 12:16:11;;;;;;;5.72;1.88;;;25.40;46.80;;;;;;4991142;28;20041;-50
2021/06/11 12:18:37;;;;;;;3.90;2.55;;;25.10;47.40;;;;;;4974488;28;20038;-59
2021/06/11 12:21:07;;;;;;;4.13;2.53;;;24.80;48.10;;;;;;4990446;28;20385;-51
2021/06/11 12:23:33;;;;;;;3.85;2.90;;;24.80;48.90;;;;;;4992091;28;20397;-55
2021/06/11 12:25:59;;;;;;;4.50;3.10;;;24.80;50.20;;;;;;4991155;28;20052;-54
2021/06/11 12:28:25;;;;;;;4.28;2.75;;;25.00;49.80;;;;;;4991748;28;20450;-55
2021/06/11 12:30:51;;;;;;;6.50;3.08;;;25.00;50.20;;;;;;4990445;28;20049;-56
2021/06/11 12:33:17;;;;;;;3.95;2.88;;;25.20;50.10;;;;;;4990128;28;20041;-56
2021/06/11 12:35:43;;;;;;;7.63;3.00;;;25.20;50.20;;;;;;4992479;28;20393;-56
2021/06/11 12:38:09;;;;;;;6.50;3.25;;;25.30;49.70;;;;;;4991912;28;20033;-58
2021/06/11 12:40:38;;;;;;;8.23;3.05;;;25.50;48.90;;;;;;4991638;28;20037;-53
2021/06/11 12:43:05;;;;;;;9.57;2.95;;;25.60;48.40;;;;;;4989814;28;20058;-57
2021/06/11 12:45:32;;;;;;;4.43;2.20;;;25.60;47.50;;;;;;4973587;28;20034;-57
2021/06/11 12:48:00;;;;;;;6.30;2.72;;;25.50;46.80;;;;;;4990737;28;20038;-62
2021/06/11 12:50:26;;;;;;;7.43;2.60;;;25.30;46.60;;;;;;4988750;28;20030;-57
2021/06/11 12:52:51;;;;;;;4.15;2.30;;;25.40;46.70;;;;;;4989245;28;20029;-55